Time;durP1;ratioP1;P1;durP2;ratioP2;P2;SDS_P1;SDS_P2;PMS_P1;PMS_P2;Temp;Humidity;BMP_temperature;BMP_pressure;BME280_temperature;BME280_humidity;BME280_pressure;Samples;Min_cycle;Max_cycle;Signal;HPM_P1;HPM_P2
2021/07/19 00:02:07;;;;;;;12.53;7.05;;;;;;;20.25;70.53;100580.86;1734816;81;25806;-79
2021/07/19 00:04:39;;;;;;;10.10;6.50;;;;;;;20.22;70.63;100585.98;1677000;84;27682;-79
2021/07/19 00:07:06;;;;;;;9.48;6.97;;;;;;;20.17;70.46;100579.91;1720961;82;25376;-80
2021/07/19 00:09:34;;;;;;;16.23;6.72;;;;;;;20.13;70.41;100574.68;1677592;83;26181;-78
2021/07/19 00:12:04;;;;;;;12.05;7.00;;;;;;;20.11;70.37;100570.56;1727738;82;25926;-79
2021/07/19 00:14:33;;;;;;;16.83;7.70;;;;;;;20.08;70.19;100565.08;1662624;83;25904;-79
2021/07/19 00:17:00;;;;;;;11.18;6.62;;;;;;;20.06;69.96;100567.22;1684733;83;27530;-80
2021/07/19 00:19:27;;;;;;;10.40;7.20;;;;;;;20.04;70.01;100565.29;1661512;83;25995;-79
2021/07/19 00:21:54;;;;;;;12.70;7.08;;;;;;;20.06;69.88;100570.50;1716668;83;25977;-79
2021/07/19 00:24:21;;;;;;;12.43;6.58;;;;;;;20.04;69.77;100561.21;1667280;83;26161;-79
2021/07/19 00:26:49;;;;;;;8.55;6.50;;;;;;;20.00;69.54;100562.26;1690887;83;26143;-80
2021/07/19 00:29:16;;;;;;;9.48;6.78;;;;;;;19.99;69.70;100561.95;1667224;83;27432;-78
2021/07/19 00:31:43;;;;;;;9.38;6.50;;;;;;;19.97;69.54;100570.10;1716835;83;26360;-79
2021/07/19 00:34:10;;;;;;;10.82;7.05;;;;;;;19.94;69.60;100579.58;1667351;83;25891;-79
2021/07/19 00:36:37;;;;;;;10.93;6.78;;;;;;;19.93;69.54;100580.63;1690673;83;26448;-79
2021/07/19 00:39:09;;;;;;;10.20;6.55;;;;;;;19.89;69.70;100578.12;1667220;83;25837;-79
2021/07/19 00:41:38;;;;;;;11.43;6.95;;;;;;;19.87;69.87;100580.80;1708893;82;27510;-79
2021/07/19 00:44:07;;;;;;;11.18;7.33;;;;;;;19.84;69.82;100580.78;1682337;83;25419;-79
2021/07/19 00:46:34;;;;;;;8.53;5.97;;;;;;;19.85;70.22;100576.14;1682094;83;26585;-79
2021/07/19 00:49:01;;;;;;;10.88;6.75;;;;;;;19.85;70.11;100576.97;1658348;83;26541;-79
2021/07/19 00:51:28;;;;;;;13.65;7.03;;;;;;;19.85;70.14;100571.54;1708118;83;25864;-79
2021/07/19 00:53:55;;;;;;;13.05;7.50;;;;;;;19.85;70.22;100567.98;1658697;83;28504;-79
2021/07/19 00:56:25;;;;;;;13.78;7.55;;;;;;;19.83;70.33;100570.13;1722823;82;25924;-79
2021/07/19 00:58:52;;;;;;;13.95;6.78;;;;;;;19.82;70.40;100576.09;1698869;82;26432;-79
2021/07/19 01:01:21;;;;;;;11.83;7.55;;;;;;;19.80;70.66;100570.65;1735010;81;26523;-80
2021/07/19 01:03:50;;;;;;;11.22;7.17;;;;;;;19.75;70.52;100577.34;1659641;84;25809;-79
2021/07/19 01:06:19;;;;;;;9.63;6.80;;;;;;;19.71;70.85;100575.67;1690029;83;28237;-79
2021/07/19 01:08:50;;;;;;;;;;;;;;;19.67;70.68;100578.59;1660045;85;26117;-79
2021/07/19 01:11:19;;;;;;;12.43;6.67;;;;;;;19.61;70.73;100576.84;1673445;84;25829;-79
2021/07/19 01:13:47;;;;;;;8.93;6.67;;;;;;;19.51;70.70;100575.84;1635763;85;25950;-79
2021/07/19 01:16:16;;;;;;;11.43;7.42;;;;;;;19.46;70.76;100577.94;1635333;85;25955;-79
2021/07/19 01:18:45;;;;;;;10.97;6.67;;;;;;;19.44;70.95;100584.70;1648195;85;27532;-79
2021/07/19 01:22:10;;;;;;;12.15;6.47;;;;;;;19.41;70.98;100582.47;1673156;85;25737;-80
2021/07/19 01:25:02;;;;;;;11.90;6.50;;;;;;;19.36;71.11;100579.13;1648041;85;25803;-79
2021/07/19 01:27:58;;;;;;;10.55;7.05;;;;;;;19.32;71.24;100581.18;1702115;82;26144;-79
2021/07/19 01:30:29;;;;;;;12.90;6.37;;;;;;;19.29;71.42;100584.40;1676849;84;25853;-79
2021/07/19 01:32:57;;;;;;;;;;;;;;;19.24;71.42;100585.95;1705615;84;27572;-79
2021/07/19 01:35:25;;;;;;;12.07;7.20;;;;;;;19.22;71.57;100588.06;1676629;84;25890;-79
2021/07/19 01:37:53;;;;;;;17.87;7.70;;;;;;;19.18;71.66;100588.82;1677233;82;26437;-79
2021/07/19 01:40:25;;;;;;;9.90;6.95;;;;;;;19.17;71.66;100594.78;1677893;84;25960;-79
2021/07/19 01:42:53;;;;;;;17.00;7.17;;;;;;;19.13;71.76;100596.33;1702980;82;25856;-78
2021/07/19 01:45:20;;;;;;;11.68;7.78;;;;;;;19.11;71.89;100597.11;1632025;84;27512;-79
2021/07/19 01:47:49;;;;;;;13.03;8.33;;;;;;;19.10;72.04;100604.12;1654519;84;25763;-79
2021/07/19 01:50:18;;;;;;;11.38;7.40;;;;;;;19.04;72.22;100595.59;1676978;84;25888;-79
2021/07/19 01:52:57;;;;;;;15.18;8.93;;;;;;;18.96;72.42;100594.09;1658550;84;26052;-79
2021/07/19 01:55:25;;;;;;;11.63;7.35;;;;;;;18.93;72.46;100595.92;1676837;84;25816;-79
2021/07/19 01:57:53;;;;;;;15.03;7.53;;;;;;;18.89;72.68;100596.13;1677070;84;28290;-80
2021/07/19 02:00:20;;;;;;;12.78;8.35;;;;;;;18.84;72.81;100599.28;1678485;83;25867;-79
2021/07/19 02:02:55;;;;;;;14.25;7.53;;;;;;;18.75;72.98;100596.11;1683124;82;26040;-79
2021/07/19 02:05:25;;;;;;;14.80;8.03;;;;;;;18.68;73.17;100596.77;1696118;81;26596;-79
2021/07/19 02:07:59;;;;;;;12.35;8.48;;;;;;;18.66;73.29;100603.49;1715173;82;25807;-80
2021/07/19 02:10:29;;;;;;;12.03;8.05;;;;;;;18.61;73.51;100601.49;1713123;82;27471;-79
2021/07/19 02:12:59;;;;;;;11.68;7.83;;;;;;;18.60;73.80;100595.80;1707817;83;25880;-79
2021/07/19 02:15:30;;;;;;;11.25;8.00;;;;;;;18.56;73.95;100600.58;1658652;83;26748;-79
2021/07/19 02:18:01;;;;;;;11.97;7.45;;;;;;;18.52;73.90;100600.20;1681722;83;25864;-79
2021/07/19 02:20:30;;;;;;;13.62;7.53;;;;;;;18.46;73.93;100599.81;1693265;83;25896;-79
2021/07/19 02:23:04;;;;;;;11.55;7.90;;;;;;;18.42;74.18;100599.44;1736889;81;28028;-79
2021/07/19 02:25:55;;;;;;;13.30;7.87;;;;;;;18.40;74.33;100601.56;1715756;82;26069;-79
2021/07/19 02:28:23;;;;;;;14.85;8.08;;;;;;;18.37;74.32;100595.77;1737909;82;27572;-79
2021/07/19 02:30:53;;;;;;;10.78;7.50;;;;;;;18.33;74.50;100591.36;1710659;82;26672;-79
2021/07/19 02:33:21;;;;;;;16.40;7.97;;;;;;;18.32;74.63;100594.32;1712902;82;26205;-79
2021/07/19 02:35:53;;;;;;;16.42;8.50;;;;;;;18.27;74.76;100594.20;1738068;82;28145;-79
2021/07/19 02:38:23;;;;;;;10.68;7.97;;;;;;;18.27;74.82;100599.09;1710750;82;25819;-79
2021/07/19 02:40:53;;;;;;;11.95;8.55;;;;;;;18.28;74.95;100602.09;1687603;82;25919;-80
2021/07/19 02:43:24;;;;;;;11.95;8.08;;;;;;;18.29;75.02;100611.89;1712839;82;25998;-79
2021/07/19 02:45:54;;;;;;;12.37;8.03;;;;;;;18.32;75.06;100605.17;1710910;82;25883;-80
2021/07/19 02:48:28;;;;;;;10.85;7.78;;;;;;;18.36;75.03;100609.89;1736597;82;28290;-79
2021/07/19 02:50:59;;;;;;;12.53;8.45;;;;;;;18.38;74.92;100617.78;1727643;82;26048;-79
2021/07/19 02:53:36;;;;;;;12.80;8.45;;;;;;;18.37;74.89;100623.72;1708927;82;33762;-79
2021/07/19 02:56:00;;;;;;;12.60;8.68;;;;;;;18.39;74.99;100620.80;1737265;81;25917;-79
2021/07/19 02:58:29;;;;;;;26.60;15.18;;;;;;;18.39;74.87;100618.89;1711215;82;26464;-79
2021/07/19 03:01:00;;;;;;;21.55;13.65;;;;;;;18.41;74.98;100622.19;1691732;83;27556;-79
2021/07/19 03:03:31;;;;;;;35.78;19.52;;;;;;;18.43;75.08;100623.33;1679636;81;25987;-79
2021/07/19 03:06:05;;;;;;;23.55;13.58;;;;;;;18.44;75.07;100620.40;1761828;80;25577;-79
2021/07/19 03:08:37;;;;;;;20.52;10.93;;;;;;;18.44;74.95;100622.28;1726352;81;26685;-79
2021/07/19 03:11:11;;;;;;;23.15;12.13;;;;;;;18.43;75.04;100626.04;1751744;81;26576;-79
2021/07/19 03:13:41;;;;;;;17.75;10.08;;;;;;;18.39;75.04;100630.29;1716587;81;27418;-79
2021/07/19 03:16:10;;;;;;;16.35;9.48;;;;;;;18.38;75.17;100636.23;1737813;82;25893;-80
2021/07/19 03:18:39;;;;;;;12.05;8.78;;;;;;;18.38;75.21;100638.95;1694225;82;26531;-79
2021/07/19 03:21:08;;;;;;;10.35;8.20;;;;;;;18.37;75.32;100641.35;1695053;83;25907;-79
2021/07/19 03:23:38;;;;;;;16.25;8.60;;;;;;;18.37;75.25;100641.88;1665670;83;25905;-79
2021/07/19 03:26:07;;;;;;;11.40;8.55;;;;;;;18.37;75.28;100650.02;1745677;81;27135;-79
2021/07/19 03:28:36;;;;;;;14.07;9.28;;;;;;;18.34;75.34;100645.08;1747958;81;25795;-79
2021/07/19 03:31:04;;;;;;;11.05;8.60;;;;;;;18.31;75.39;100636.05;1700040;81;25788;-79
2021/07/19 03:33:32;;;;;;;13.28;8.33;;;;;;;18.30;75.59;100639.31;1690278;82;25862;-79
2021/07/19 03:36:01;;;;;;;12.40;9.13;;;;;;;18.31;75.57;100643.66;1706501;82;25594;-79
2021/07/19 03:38:29;;;;;;;10.15;7.65;;;;;;;18.34;75.64;100639.66;1728519;81;27526;-79
2021/07/19 03:41:06;;;;;;;12.13;7.83;;;;;;;18.33;75.66;100634.75;1683360;83;26567;-79
2021/07/19 03:43:34;;;;;;;13.87;10.00;;;;;;;18.35;75.76;100630.44;1688274;83;26540;-79
2021/07/19 03:46:02;;;;;;;15.58;9.93;;;;;;;18.39;75.75;100640.58;1686666;84;26590;-79
2021/07/19 03:48:31;;;;;;;18.90;10.53;;;;;;;18.43;75.78;100626.04;1689296;83;26031;-79
2021/07/19 03:51:00;;;;;;;16.75;9.05;;;;;;;18.46;75.66;100626.41;1678930;82;27185;-79
2021/07/19 03:53:28;;;;;;;13.15;8.88;;;;;;;18.48;75.60;100632.94;1645239;82;25462;-80
2021/07/19 03:55:57;;;;;;;16.37;8.25;;;;;;;18.52;75.60;100636.83;1722625;82;25853;-79
2021/07/19 03:58:25;;;;;;;12.05;7.85;;;;;;;18.53;75.53;100639.02;1672707;83;26565;-80
2021/07/19 04:00:54;;;;;;;17.27;8.55;;;;;;;18.55;75.50;100635.01;1728487;81;25814;-80
2021/07/19 04:03:27;;;;;;;12.88;7.70;;;;;;;18.59;75.50;100640.25;1667648;84;27878;-80
2021/07/19 04:05:59;;;;;;;11.83;7.95;;;;;;;18.62;75.46;100634.36;1693619;83;25672;-80
2021/07/19 04:08:27;;;;;;;10.08;8.13;;;;;;;18.64;75.51;100639.54;1669203;83;25759;-79
2021/07/19 04:10:55;;;;;;;13.60;8.95;;;;;;;18.66;75.42;100641.48;1692354;83;25766;-80
2021/07/19 04:13:23;;;;;;;14.28;8.58;;;;;;;18.69;75.49;100641.02;1668844;83;25822;-79
2021/07/19 04:15:52;;;;;;;12.35;7.83;;;;;;;18.72;75.43;100637.28;1719080;83;27446;-80
2021/07/19 04:18:24;;;;;;;15.95;9.08;;;;;;;18.75;75.34;100642.25;1669729;83;26552;-80
2021/07/19 04:20:56;;;;;;;13.62;8.80;;;;;;;18.81;75.32;100639.92;1671396;83;25888;-80
2021/07/19 04:23:24;;;;;;;;;;;;;;;18.86;75.36;100640.57;1671375;83;26468;-79
2021/07/19 04:25:53;;;;;;;15.20;7.40;;;;;;;18.89;75.12;100637.36;1717513;83;25734;-79
2021/07/19 04:28:23;;;;;;;14.58;8.38;;;;;;;18.85;75.07;100641.63;1669456;83;28291;-79
2021/07/19 04:30:51;;;;;;;17.07;9.08;;;;;;;18.86;75.22;100650.07;1668752;83;25838;-79
2021/07/19 04:33:22;;;;;;;11.97;7.70;;;;;;;18.94;75.33;100657.31;1718639;83;25898;-80
2021/07/19 04:35:51;;;;;;;12.43;7.60;;;;;;;18.96;74.88;100649.75;1718949;83;25785;-79
2021/07/19 04:38:22;;;;;;;11.22;8.65;;;;;;;18.97;75.04;100656.81;1693088;83;25930;-80
2021/07/19 04:40:56;;;;;;;18.42;9.03;;;;;;;19.03;75.11;100656.40;1669396;83;28240;-79
2021/07/19 04:43:25;;;;;;;12.10;7.65;;;;;;;19.06;74.87;100656.73;1691723;83;25835;-80
2021/07/19 04:45:53;;;;;;;15.30;7.08;;;;;;;19.03;74.65;100653.69;1692213;83;25349;-80
2021/07/19 04:48:20;;;;;;;12.13;8.63;;;;;;;19.07;74.98;100658.92;1642646;83;26599;-78
2021/07/19 04:50:48;;;;;;;16.20;9.23;;;;;;;19.11;75.05;100658.20;1668610;83;26525;-78
2021/07/19 04:53:16;;;;;;;13.53;8.13;;;;;;;19.13;74.93;100662.03;1718271;83;28313;-79
2021/07/19 04:55:51;;;;;;;12.10;8.00;;;;;;;19.17;75.07;100672.70;1691473;83;25688;-79
2021/07/19 04:58:22;;;;;;;21.25;7.40;;;;;;;19.19;75.27;100665.13;1718700;83;25803;-79
2021/07/19 05:01:00;;;;;;;12.98;7.67;;;;;;;19.16;75.09;100671.86;1669399;82;25884;-80
2021/07/19 05:03:31;;;;;;;12.28;7.40;;;;;;;19.18;75.24;100664.86;1728987;82;25768;-79
2021/07/19 05:06:00;;;;;;;15.48;8.00;;;;;;;19.14;75.09;100663.14;1729076;82;28364;-79
2021/07/19 05:08:30;;;;;;;10.68;7.47;;;;;;;19.14;75.26;100671.81;1696155;82;25305;-79
2021/07/19 05:10:58;;;;;;;12.40;7.20;;;;;;;19.19;75.43;100667.32;1673349;82;26597;-79
2021/07/19 05:13:27;;;;;;;14.85;8.10;;;;;;;19.19;75.30;100671.39;1729327;82;26419;-78
2021/07/19 05:15:54;;;;;;;16.62;7.28;;;;;;;19.28;75.51;100674.55;1729393;82;25766;-79
2021/07/19 05:18:25;;;;;;;11.78;6.72;;;;;;;19.34;75.41;100666.82;1651617;82;27639;-78
2021/07/19 05:20:52;;;;;;;14.68;7.95;;;;;;;19.39;75.14;100669.64;1673055;82;26100;-79
2021/07/19 05:23:25;;;;;;;11.53;6.75;;;;;;;19.50;74.93;100668.78;1674753;82;25850;-78
2021/07/19 05:25:53;;;;;;;10.05;6.60;;;;;;;19.60;74.89;100669.48;1728925;82;25853;-79
2021/07/19 05:28:21;;;;;;;10.50;6.80;;;;;;;19.69;74.54;100670.22;1675206;82;26254;-78
2021/07/19 05:30:51;;;;;;;11.22;6.65;;;;;;;19.75;74.42;100665.69;1672794;82;27546;-78
2021/07/19 05:33:24;;;;;;;12.55;7.00;;;;;;;19.79;74.70;100669.03;1728887;82;26535;-79
2021/07/19 05:35:52;;;;;;;11.22;5.95;;;;;;;19.90;74.47;100670.03;1729179;82;25762;-78
2021/07/19 05:38:20;;;;;;;8.03;6.15;;;;;;;19.98;74.35;100671.81;1675133;82;26215;-77
2021/07/19 05:40:48;;;;;;;8.90;6.50;;;;;;;20.04;73.40;100672.70;1697921;82;25942;-78
2021/07/19 05:43:17;;;;;;;10.15;7.33;;;;;;;20.02;73.17;100675.41;1728570;82;27620;-78
2021/07/19 05:45:44;;;;;;;12.23;6.28;;;;;;;20.00;72.99;100666.11;1728671;82;26013;-78
2021/07/19 05:48:11;;;;;;;11.18;5.37;;;;;;;19.93;72.59;100665.47;1629093;82;25665;-78
2021/07/19 05:50:38;;;;;;;8.68;5.72;;;;;;;19.97;72.74;100670.70;1673344;82;26523;-79
2021/07/19 05:53:06;;;;;;;12.00;6.40;;;;;;;20.00;73.21;100675.62;1728484;82;25802;-78
2021/07/19 05:55:34;;;;;;;8.85;7.05;;;;;;;20.06;72.69;100668.41;1728891;82;27530;-78
2021/07/19 05:58:03;;;;;;;9.95;6.17;;;;;;;20.15;73.32;100673.16;1651223;82;25986;-77
2021/07/19 06:00:30;;;;;;;9.90;5.72;;;;;;;20.21;73.05;100679.00;1651517;82;25372;-79
2021/07/19 06:02:57;;;;;;;13.83;5.97;;;;;;;20.24;72.86;100676.33;1697563;82;25880;-79
2021/07/19 06:05:25;;;;;;;10.00;6.05;;;;;;;20.30;72.47;100678.05;1728863;82;25803;-78
2021/07/19 06:07:52;;;;;;;13.20;5.97;;;;;;;20.28;72.12;100678.84;1698705;82;27357;-78
2021/07/19 06:10:20;;;;;;;10.72;6.53;;;;;;;20.28;72.12;100678.30;1698639;82;25991;-78
2021/07/19 06:12:48;;;;;;;10.30;5.90;;;;;;;20.30;72.16;100687.05;1686486;82;26116;-78
2021/07/19 06:15:15;;;;;;;17.73;7.15;;;;;;;20.34;71.99;100676.48;1729479;82;25868;-78
2021/07/19 06:17:42;;;;;;;12.95;6.12;;;;;;;20.41;72.14;100685.30;1676960;82;25843;-78
2021/07/19 06:20:17;;;;;;;12.25;6.08;;;;;;;20.44;72.12;100682.92;1677308;82;27566;-78
2021/07/19 06:22:46;;;;;;;8.83;5.72;;;;;;;20.53;72.42;100681.97;1700364;82;26698;-78
2021/07/19 06:25:15;;;;;;;8.03;5.72;;;;;;;20.61;71.33;100685.62;1729329;82;25849;-78
2021/07/19 06:27:44;;;;;;;13.13;5.92;;;;;;;20.66;71.76;100683.78;1700754;82;26645;-77
2021/07/19 06:30:14;;;;;;;11.28;5.42;;;;;;;20.74;71.92;100684.70;1675734;82;25972;-79
2021/07/19 06:32:41;;;;;;;9.70;5.47;;;;;;;20.82;71.58;100687.55;1677147;82;27559;-78
2021/07/19 06:35:10;;;;;;;8.65;5.45;;;;;;;20.92;71.47;100689.03;1729720;82;26536;-78
2021/07/19 06:37:38;;;;;;;11.22;4.72;;;;;;;20.92;70.52;100690.40;1700186;82;25856;-78
2021/07/19 06:40:07;;;;;;;11.53;4.25;;;;;;;20.93;69.87;100696.67;1675581;82;25811;-78
2021/07/19 06:42:35;;;;;;;11.53;4.90;;;;;;;20.91;69.07;100701.55;1677051;82;25945;-78
2021/07/19 06:45:03;;;;;;;9.90;4.40;;;;;;;20.88;69.26;100691.15;1700484;82;27574;-78
2021/07/19 06:47:30;;;;;;;5.75;3.87;;;;;;;20.91;68.29;100690.66;1700510;82;26313;-78
2021/07/19 06:49:58;;;;;;;11.57;4.87;;;;;;;20.94;68.34;100695.58;1675694;82;25849;-78
2021/07/19 06:52:25;;;;;;;11.35;4.70;;;;;;;20.98;68.99;100694.83;1676936;82;26698;-78
2021/07/19 06:54:53;;;;;;;10.90;4.87;;;;;;;21.12;68.86;100702.13;1729645;82;25868;-78
2021/07/19 06:57:21;;;;;;;13.18;4.97;;;;;;;21.18;68.43;100699.75;1700218;82;28302;-78
2021/07/19 06:59:48;;;;;;;15.08;5.53;;;;;;;21.24;67.34;100696.00;1675590;82;25793;-78
2021/07/19 07:02:16;;;;;;;9.50;4.67;;;;;;;21.29;68.15;100701.53;1690991;84;26040;-78
2021/07/19 07:04:44;;;;;;;9.60;5.40;;;;;;;21.38;68.46;100695.36;1701775;83;26486;-78
2021/07/19 07:07:11;;;;;;;16.85;7.33;;;;;;;21.51;67.34;100705.06;1689946;83;25543;-78
2021/07/19 07:09:38;;;;;;;12.88;5.87;;;;;;;21.58;66.44;100691.23;1668917;83;28235;-78
2021/07/19 07:12:06;;;;;;;10.60;4.10;;;;;;;21.59;67.15;100696.42;1691404;83;25891;-78
2021/07/19 07:14:33;;;;;;;6.22;3.95;;;;;;;21.60;66.19;100693.97;1718016;83;25842;-78
2021/07/19 07:17:00;;;;;;;11.00;4.25;;;;;;;21.44;65.23;100693.00;1691614;83;26428;-79
2021/07/19 07:19:27;;;;;;;15.65;4.15;;;;;;;21.39;65.40;100697.02;1646229;83;25809;-79
2021/07/19 07:21:54;;;;;;;9.28;4.45;;;;;;;21.48;65.77;100687.84;1691890;83;28382;-79
2021/07/19 07:24:21;;;;;;;13.98;5.03;;;;;;;21.60;65.91;100693.97;1718789;83;25856;-79
2021/07/19 07:26:48;;;;;;;7.70;4.58;;;;;;;21.72;66.00;100692.46;1668475;83;25809;-79
2021/07/19 07:29:15;;;;;;;10.48;4.70;;;;;;;21.74;64.70;100693.02;1646429;83;26509;-79
2021/07/19 07:31:42;;;;;;;11.78;4.33;;;;;;;21.76;65.42;100689.50;1691034;83;25929;-80
2021/07/19 07:34:11;;;;;;;8.78;4.53;;;;;;;21.83;65.84;100690.16;1668601;83;27509;-79
2021/07/19 07:36:39;;;;;;;15.25;4.60;;;;;;;21.94;65.34;100691.91;1691646;83;25863;-79
2021/07/19 07:39:07;;;;;;;11.03;4.83;;;;;;;22.09;66.93;100696.93;1643275;83;26479;-78
2021/07/19 07:41:34;;;;;;;9.60;3.80;;;;;;;22.09;64.70;100698.86;1691552;83;26617;-78
2021/07/19 07:44:01;;;;;;;11.28;4.90;;;;;;;21.94;63.07;100696.79;1692256;83;25376;-79
2021/07/19 07:46:28;;;;;;;12.88;4.67;;;;;;;21.84;63.77;100697.23;1691768;83;27529;-80
2021/07/19 07:48:55;;;;;;;14.70;6.22;;;;;;;21.79;63.58;100693.89;1646503;83;25849;-79
2021/07/19 07:51:22;;;;;;;11.83;4.60;;;;;;;21.84;64.19;100695.88;1691541;83;26592;-79
2021/07/19 07:53:49;;;;;;;12.03;6.42;;;;;;;21.89;63.96;100694.04;1669206;83;25860;-79
2021/07/19 07:56:16;;;;;;;10.95;4.30;;;;;;;22.01;64.21;100693.85;1668758;83;25806;-79
2021/07/19 07:58:43;;;;;;;12.33;3.65;;;;;;;22.15;63.67;100688.27;1642561;83;27520;-79
2021/07/19 08:01:10;;;;;;;7.80;4.10;;;;;;;22.12;62.37;100691.50;1691377;83;25988;-79
2021/07/19 08:03:37;;;;;;;8.03;3.47;;;;;;;22.02;61.80;100688.16;1728941;82;25751;-79
2021/07/19 08:06:04;;;;;;;13.20;4.35;;;;;;;21.96;61.74;100682.92;1697737;82;26391;-79
2021/07/19 08:08:31;;;;;;;14.73;4.55;;;;;;;21.87;61.63;100681.20;1651520;82;25910;-79
2021/07/19 08:10:58;;;;;;;8.55;3.70;;;;;;;21.89;62.19;100684.49;1698073;82;27635;-79
2021/07/19 08:13:26;;;;;;;9.25;3.65;;;;;;;21.90;62.23;100682.03;1728784;82;25846;-79
2021/07/19 08:15:53;;;;;;;13.43;3.83;;;;;;;21.97;62.11;100688.11;1696422;82;25842;-79
2021/07/19 08:18:20;;;;;;;12.18;4.40;;;;;;;22.07;62.44;100681.36;1651240;82;25953;-79
2021/07/19 08:20:47;;;;;;;12.00;4.83;;;;;;;22.23;62.56;100676.33;1697976;82;25856;-80
2021/07/19 08:23:15;;;;;;;12.78;4.50;;;;;;;22.38;62.10;100678.88;1728848;82;27574;-78
2021/07/19 08:25:42;;;;;;;10.23;3.80;;;;;;;22.45;60.03;100681.67;1673269;82;25871;-79
2021/07/19 08:28:09;;;;;;;9.95;4.33;;;;;;;22.46;59.92;100677.02;1651293;82;25348;-78
2021/07/19 08:30:36;;;;;;;7.40;3.87;;;;;;;22.43;59.75;100670.20;1697771;82;25975;-79
2021/07/19 08:33:04;;;;;;;12.93;4.72;;;;;;;22.44;57.82;100666.91;1728865;82;25880;-79
2021/07/19 08:35:31;;;;;;;7.58;4.10;;;;;;;22.47;59.03;100675.95;1650958;82;27325;-78
2021/07/19 08:37:58;;;;;;;11.10;4.25;;;;;;;22.44;59.66;100679.19;1699436;81;25995;-79
2021/07/19 08:40:26;;;;;;;11.25;4.65;;;;;;;22.46;59.58;100681.94;1691361;82;26489;-79
2021/07/19 08:42:55;;;;;;;8.65;4.17;;;;;;;22.48;59.76;100677.58;1744512;82;26607;-79
2021/07/19 08:45:22;;;;;;;7.15;3.45;;;;;;;22.50;59.89;100682.23;1744754;82;25966;-79
2021/07/19 08:47:52;;;;;;;9.30;3.67;;;;;;;22.58;60.49;100679.83;1713929;82;27622;-79
2021/07/19 08:50:22;;;;;;;7.17;3.75;;;;;;;22.73;60.33;100682.68;1715078;82;25780;-79
2021/07/19 08:52:53;;;;;;;8.00;3.50;;;;;;;22.82;59.73;100667.45;1744713;82;25892;-80
2021/07/19 08:55:22;;;;;;;9.10;3.35;;;;;;;22.92;58.97;100675.68;1713654;82;25822;-79
2021/07/19 08:57:50;;;;;;;10.65;3.60;;;;;;;22.97;58.88;100668.88;1667738;82;26677;-79
2021/07/19 09:00:21;;;;;;;12.93;4.10;;;;;;;22.99;57.73;100676.27;1715266;82;27493;-79
2021/07/19 09:02:48;;;;;;;10.25;4.45;;;;;;;22.92;57.70;100672.15;1744398;82;25724;-80
2021/07/19 09:05:15;;;;;;;10.78;4.15;;;;;;;22.92;57.10;100683.08;1713129;82;25876;-80
2021/07/19 09:07:43;;;;;;;8.33;3.58;;;;;;;22.89;55.98;100670.77;1664047;82;25851;-79
2021/07/19 09:10:11;;;;;;;9.23;4.10;;;;;;;22.83;56.58;100669.10;1711077;82;25965;-79
2021/07/19 09:12:43;;;;;;;10.18;4.20;;;;;;;22.85;57.16;100660.64;1729535;82;28254;-78
2021/07/19 09:15:14;;;;;;;11.48;3.83;;;;;;;22.92;57.25;100663.39;1710773;82;25786;-80
2021/07/19 09:17:41;;;;;;;;;;;;;;;23.03;57.27;100659.62;1679058;82;25838;-80
2021/07/19 09:20:13;;;;;;;10.93;3.87;;;;;;;23.15;56.61;100658.58;1710669;82;25897;-79
2021/07/19 09:22:40;;;;;;;9.30;3.47;;;;;;;23.17;57.30;100659.95;1711077;82;26584;-79
2021/07/19 09:25:17;;;;;;;7.55;3.67;;;;;;;23.19;56.77;100659.14;1664179;82;27390;-80
2021/07/19 09:27:58;;;;;;;8.33;3.67;;;;;;;23.17;55.84;100661.32;1710722;82;25777;-79
2021/07/19 09:30:29;;;;;;;;;;;;;;;23.18;56.28;100664.89;1732498;82;25342;-79
2021/07/19 09:32:59;;;;;;;;;;;;;;;23.25;56.21;100658.06;1732473;82;25900;-79
2021/07/19 09:35:28;;;;;;;14.35;3.95;;;;;;;23.33;56.19;100657.56;1729553;82;25800;-79
2021/07/19 09:37:57;;;;;;;8.70;3.72;;;;;;;23.37;56.03;100660.61;1729786;82;27564;-79
2021/07/19 09:40:27;;;;;;;8.38;3.85;;;;;;;23.38;55.41;100652.66;1686258;82;26519;-79
2021/07/19 09:42:55;;;;;;;11.33;3.93;;;;;;;23.38;55.95;100654.86;1730078;81;25809;-79
2021/07/19 09:45:25;;;;;;;10.88;4.20;;;;;;;23.43;55.65;100651.32;1687658;82;25886;-79
2021/07/19 09:48:06;;;;;;;9.65;4.03;;;;;;;23.50;55.08;100655.99;1688227;82;25862;-79
2021/07/19 09:50:53;;;;;;;9.58;3.72;;;;;;;23.60;55.56;100650.00;1686818;82;28178;-79
2021/07/19 09:53:32;;;;;;;8.98;3.87;;;;;;;23.69;53.48;100646.18;1729844;82;25819;-80
2021/07/19 09:56:15;;;;;;;8.83;4.40;;;;;;;23.86;55.52;100644.00;1710658;82;25897;-79
2021/07/19 09:58:49;;;;;;;8.78;4.10;;;;;;;24.04;54.61;100650.83;1688658;82;26682;-79
2021/07/19 10:01:31;;;;;;;12.85;5.25;;;;;;;24.12;54.29;100649.76;1686426;82;25777;-79
2021/07/19 10:04:11;;;;;;;9.95;4.30;;;;;;;24.11;55.55;100652.78;1730022;82;27569;-79
2021/07/19 10:06:41;;;;;;;10.43;4.25;;;;;;;24.08;53.96;100653.34;1710662;82;25791;-79
2021/07/19 10:09:12;;;;;;;10.20;3.80;;;;;;;24.06;54.93;100654.17;1687810;82;25619;-79
2021/07/19 10:11:46;;;;;;;8.80;3.92;;;;;;;24.14;53.72;100649.51;1686634;82;26490;-80
2021/07/19 10:14:12;;;;;;;8.78;4.10;;;;;;;24.21;53.91;100640.45;1730068;82;25774;-79
2021/07/19 10:16:41;;;;;;;9.68;4.22;;;;;;;24.26;54.21;100639.91;1710894;82;27465;-79
2021/07/19 10:19:08;;;;;;;10.32;4.55;;;;;;;24.36;54.87;100644.54;1729926;82;25831;-79
2021/07/19 10:21:36;;;;;;;11.65;4.60;;;;;;;24.42;53.47;100648.36;1686779;82;25992;-79
2021/07/19 10:24:06;;;;;;;9.90;4.65;;;;;;;24.34;54.08;100651.66;1729825;82;26521;-80
2021/07/19 10:26:35;;;;;;;8.05;4.97;;;;;;;24.29;54.72;100642.66;1729870;82;25884;-79
2021/07/19 10:29:04;;;;;;;8.15;4.42;;;;;;;24.24;52.88;100641.28;1710994;82;28246;-79
2021/07/19 10:31:34;;;;;;;9.03;4.92;;;;;;;24.16;53.86;100648.69;1686549;82;25880;-79
2021/07/19 10:34:04;;;;;;;9.00;4.62;;;;;;;24.11;53.06;100644.57;1729906;82;25831;-79
2021/07/19 10:36:45;;;;;;;9.53;4.53;;;;;;;24.06;53.73;100647.33;1710923;82;25935;-79
2021/07/19 10:39:24;;;;;;;9.60;5.17;;;;;;;24.09;53.71;100644.85;1711073;82;25858;-80
2021/07/19 10:42:10;;;;;;;11.48;5.08;;;;;;;24.08;54.11;100645.14;1686047;82;27406;-79
2021/07/19 10:44:40;;;;;;;10.75;4.78;;;;;;;24.06;53.75;100646.76;1729863;82;25942;-80
2021/07/19 10:47:19;;;;;;;11.70;5.25;;;;;;;23.93;54.09;100646.47;1687911;82;36142;-79
2021/07/19 10:50:03;;;;;;;12.00;5.33;;;;;;;23.85;53.92;100653.83;1687724;82;26468;-79
2021/07/19 10:52:37;;;;;;;11.33;5.83;;;;;;;23.72;54.67;100653.83;1686793;82;25875;-79
2021/07/19 10:55:08;;;;;;;11.22;5.65;;;;;;;23.71;54.85;100649.46;1729799;82;27514;-79
2021/07/19 10:57:41;;;;;;;10.98;5.90;;;;;;;23.67;55.61;100645.62;1711003;82;26299;-79
2021/07/19 11:00:16;;;;;;;9.33;5.85;;;;;;;23.67;54.81;100644.27;1676382;82;25827;-79
2021/07/19 11:02:43;;;;;;;10.13;5.92;;;;;;;23.68;55.60;100647.25;1686665;82;26411;-79
2021/07/19 11:05:13;;;;;;;11.78;5.80;;;;;;;23.71;55.29;100651.66;1729583;82;25796;-79
2021/07/19 11:07:42;;;;;;;8.48;5.65;;;;;;;23.75;54.81;100654.13;1740686;82;27255;-79
2021/07/19 11:10:20;;;;;;;15.18;5.65;;;;;;;23.71;54.57;100650.29;1667490;82;25389;-79
2021/07/19 11:12:57;;;;;;;11.83;6.00;;;;;;;23.73;55.51;100650.01;1689493;82;26737;-79
2021/07/19 11:15:37;;;;;;;14.63;5.83;;;;;;;23.69;55.65;100644.23;1744487;81;25837;-79
2021/07/19 11:18:17;;;;;;;18.57;10.08;;;;;;;23.68;55.09;100643.16;1744022;82;26176;-80
2021/07/19 11:20:46;;;;;;;13.88;7.95;;;;;;;23.64;55.31;100641.52;1664693;82;28085;-79
2021/07/19 11:23:16;;;;;;;11.20;6.10;;;;;;;23.70;56.06;100640.42;1689273;82;25351;-79
2021/07/19 11:25:44;;;;;;;12.17;5.90;;;;;;;23.79;55.40;100640.70;1743732;82;25804;-79
2021/07/19 11:28:22;;;;;;;11.38;5.78;;;;;;;23.79;55.35;100642.08;1744646;82;25766;-79
2021/07/19 11:31:13;;;;;;;11.83;6.65;;;;;;;23.81;55.18;100633.59;1669050;82;26532;-79
2021/07/19 11:33:49;;;;;;;14.70;6.55;;;;;;;23.84;54.81;100639.36;1689773;82;28362;-78